sensor_id;sensor_type;location;lat;lon;timestamp;pressure;altitude;pressure_sealevel;temperature;humidity
57432;BME280;43275;40.370;-3.718;2022-12-22T10:46:09;95837.63;;;21.45;48.67
57432;BME280;43275;40.370;-3.718;2022-12-22T10:48:38;95823.00;;;21.01;50.94
57432;BME280;43275;40.370;-3.718;2022-12-22T10:51:10;95816.84;;;20.66;52.33
57432;BME280;43275;40.370;-3.718;2022-12-22T10:54:01;95817.78;;;20.32;53.39
57432;BME280;43275;40.370;-3.718;2022-12-22T10:56:30;95817.75;;;20.08;54.45
57432;BME280;43275;40.370;-3.718;2022-12-22T11:01:39;95797.66;;;19.73;54.88
57432;BME280;43275;40.370;-3.718;2022-12-22T11:04:24;95793.84;;;19.63;56.14
57432;BME280;43275;40.370;-3.718;2022-12-22T11:07:07;95789.59;;;19.55;57.14
57432;BME280;43275;40.370;-3.718;2022-12-22T11:09:35;95788.50;;;19.49;58.17
57432;BME280;43275;40.370;-3.718;2022-12-22T11:33:16;95766.63;;;19.27;62.35
57432;BME280;43275;40.370;-3.718;2022-12-22T11:38:34;95758.75;;;19.25;63.15
57432;BME280;43275;40.370;-3.718;2022-12-22T11:41:21;95746.91;;;19.25;62.72
57432;BME280;43275;40.370;-3.718;2022-12-22T11:44:16;95743.38;;;19.24;63.17
57432;BME280;43275;40.370;-3.718;2022-12-22T11:47:01;95732.75;;;19.23;63.12
57432;BME280;43275;40.370;-3.718;2022-12-22T11:56:29;95728.41;;;19.22;63.59
57432;BME280;43275;40.370;-3.718;2022-12-22T12:02:18;95735.91;;;19.21;64.90
57432;BME280;43275;40.370;-3.718;2022-12-22T12:05:15;95733.13;;;19.21;64.35
57432;BME280;66326;40.370;-3.718;2022-12-22T12:13:32;95744.19;;;19.21;64.91
57432;BME280;66326;40.370;-3.718;2022-12-22T12:21:55;95740.66;;;19.21;65.70
57432;BME280;66326;40.370;-3.718;2022-12-22T12:27:08;95739.50;;;19.18;63.66
57432;BME280;66326;40.370;-3.718;2022-12-22T12:33:57;95739.09;;;19.20;62.12
57432;BME280;66326;40.370;-3.718;2022-12-22T12:36:29;95731.22;;;19.18;61.69
57432;BME280;66326;40.370;-3.718;2022-12-22T12:41:46;95721.31;;;19.21;61.39
57432;BME280;66326;40.370;-3.718;2022-12-22T12:44:43;95721.75;;;19.15;58.77
57432;BME280;66326;40.370;-3.718;2022-12-22T12:47:36;95727.38;;;19.39;55.83
57432;BME280;66326;40.370;-3.718;2022-12-22T12:53:33;95722.28;;;19.65;56.84
57432;BME280;66326;40.370;-3.718;2022-12-22T12:56:14;95714.78;;;19.66;56.41
57432;BME280;66326;40.370;-3.718;2022-12-22T13:10:31;95689.00;;;19.72;56.90
57432;BME280;66326;40.370;-3.718;2022-12-22T13:12:59;95686.75;;;19.64;56.66
57432;BME280;66326;40.370;-3.718;2022-12-22T13:15:31;95686.06;;;19.56;57.46
57432;BME280;66326;40.370;-3.718;2022-12-22T13:18:00;95682.63;;;19.48;58.50
57432;BME280;66326;40.370;-3.718;2022-12-22T13:20:35;95677.97;;;19.41;58.83
57432;BME280;66326;40.370;-3.718;2022-12-22T13:23:10;95684.75;;;19.37;59.38
57432;BME280;66326;40.370;-3.718;2022-12-22T13:25:47;95681.25;;;19.33;59.80
57432;BME280;66326;40.370;-3.718;2022-12-22T13:28:18;95673.44;;;19.27;60.72
57432;BME280;66326;40.370;-3.718;2022-12-22T13:31:20;95662.78;;;19.26;60.48
57432;BME280;66326;40.370;-3.718;2022-12-22T13:34:03;95653.78;;;19.22;60.95
57432;BME280;66326;40.370;-3.718;2022-12-22T13:36:31;95649.00;;;19.22;60.73
57432;BME280;66326;40.370;-3.718;2022-12-22T13:39:01;95662.47;;;19.20;60.90
57432;BME280;66326;40.370;-3.718;2022-12-22T13:41:28;95655.00;;;19.17;60.83
57432;BME280;66326;40.370;-3.718;2022-12-22T13:44:05;95667.25;;;19.16;61.02
57432;BME280;66326;40.370;-3.718;2022-12-22T13:46:34;95661.38;;;19.14;61.04
57432;BME280;66326;40.370;-3.718;2022-12-22T13:49:06;95657.03;;;19.13;61.27
57432;BME280;66326;40.370;-3.718;2022-12-22T13:51:36;95656.66;;;19.11;61.36
57432;BME280;66326;40.370;-3.718;2022-12-22T13:56:47;95664.19;;;19.10;61.59
57432;BME280;66326;40.370;-3.718;2022-12-22T13:59:39;95654.75;;;19.08;61.28
57432;BME280;66326;40.370;-3.718;2022-12-22T14:04:42;95654.25;;;19.13;60.94
57432;BME280;66326;40.370;-3.718;2022-12-22T14:07:32;95659.78;;;19.13;61.88
57432;BME280;66326;40.370;-3.718;2022-12-22T14:14:43;95644.84;;;19.10;62.13
57432;BME280;66326;40.370;-3.718;2022-12-22T14:19:49;95641.69;;;19.08;61.59
57432;BME280;66326;40.370;-3.718;2022-12-22T14:22:19;95646.03;;;19.09;61.80
57432;BME280;66326;40.370;-3.718;2022-12-22T14:24:50;95646.44;;;19.08;61.78
57432;BME280;66326;40.370;-3.718;2022-12-22T14:27:32;95648.41;;;19.07;62.06
57432;BME280;66326;40.370;-3.718;2022-12-22T14:30:04;95647.66;;;19.07;62.29
57432;BME280;66326;40.370;-3.718;2022-12-22T14:32:43;95642.13;;;19.07;62.31
57432;BME280;66326;40.370;-3.718;2022-12-22T14:35:28;95637.78;;;19.06;62.20
57432;BME280;66326;40.370;-3.718;2022-12-22T14:38:24;95644.88;;;19.07;62.42
57432;BME280;66326;40.370;-3.718;2022-12-22T14:40:54;95638.59;;;19.06;62.22
57432;BME280;66326;40.370;-3.718;2022-12-22T14:43:29;95644.13;;;19.06;62.79
57432;BME280;66326;40.370;-3.718;2022-12-22T14:46:07;95639.78;;;19.05;62.52
57432;BME280;66326;40.370;-3.718;2022-12-22T14:48:39;95648.84;;;19.06;63.01
57432;BME280;66326;40.370;-3.718;2022-12-22T14:51:15;95649.63;;;19.06;62.79
57432;BME280;66326;40.370;-3.718;2022-12-22T14:53:46;95639.78;;;19.05;62.91
57432;BME280;66326;40.370;-3.718;2022-12-22T14:56:15;95643.31;;;19.06;63.05
57432;BME280;66326;40.370;-3.718;2022-12-22T14:59:08;95646.06;;;19.06;63.06
57432;BME280;66326;40.370;-3.718;2022-12-22T15:01:36;95654.38;;;19.06;62.91
57432;BME280;66326;40.370;-3.718;2022-12-22T15:04:23;95654.38;;;19.06;62.87
57432;BME280;66326;40.370;-3.718;2022-12-22T15:07:41;95648.84;;;19.06;62.98
57432;BME280;66326;40.370;-3.718;2022-12-22T15:10:16;95656.34;;;19.05;62.74
57432;BME280;66326;40.370;-3.718;2022-12-22T15:12:47;95650.03;;;19.05;62.61
57432;BME280;66326;40.370;-3.718;2022-12-22T15:15:55;95659.13;;;19.05;62.66
57432;BME280;66326;40.370;-3.718;2022-12-22T15:18:28;95655.56;;;19.05;62.85
57432;BME280;66326;40.370;-3.718;2022-12-22T15:20:55;95657.56;;;19.04;62.83
57432;BME280;66326;40.370;-3.718;2022-12-22T15:23:23;95662.66;;;19.06;62.79
57432;BME280;66326;40.370;-3.718;2022-12-22T15:25:50;95651.59;;;19.06;63.38
57432;BME280;66326;40.370;-3.718;2022-12-22T15:28:17;95669.38;;;19.05;63.21
57432;BME280;66326;40.370;-3.718;2022-12-22T15:30:44;95671.38;;;19.04;63.22
57432;BME280;66326;40.370;-3.718;2022-12-22T15:33:17;95667.41;;;19.05;63.18
57432;BME280;66326;40.370;-3.718;2022-12-22T15:35:45;95668.19;;;19.06;63.39
57432;BME280;66326;40.370;-3.718;2022-12-22T15:38:14;95665.78;;;19.08;64.01
57432;BME280;66326;40.370;-3.718;2022-12-22T15:41:11;95658.66;;;19.10;63.00
57432;BME280;66326;40.370;-3.718;2022-12-22T15:44:42;95669.69;;;19.10;63.21
57432;BME280;66326;40.370;-3.718;2022-12-22T15:51:21;95669.31;;;19.08;63.79
57432;BME280;66326;40.370;-3.718;2022-12-22T15:57:49;95672.09;;;19.08;64.07
57432;BME280;66326;40.370;-3.718;2022-12-22T16:00:17;95672.88;;;19.09;64.08
57432;BME280;66326;40.370;-3.718;2022-12-22T16:02:45;95675.59;;;19.12;62.76
57432;BME280;66326;40.370;-3.718;2022-12-22T16:05:13;95677.56;;;19.12;61.06
57432;BME280;66326;40.370;-3.718;2022-12-22T16:07:41;95683.09;;;19.12;60.69
57432;BME280;66326;40.370;-3.718;2022-12-22T16:10:27;95693.81;;;19.10;60.15
57432;BME280;66326;40.370;-3.718;2022-12-22T16:12:55;95700.53;;;19.09;59.85
57432;BME280;66326;40.370;-3.718;2022-12-22T16:15:28;95700.91;;;19.07;59.45
57432;BME280;66326;40.370;-3.718;2022-12-22T16:17:57;95704.47;;;19.08;59.09
57432;BME280;66326;40.370;-3.718;2022-12-22T16:20:26;95705.25;;;19.08;59.29
57432;BME280;66326;40.370;-3.718;2022-12-22T16:23:01;95705.25;;;19.08;59.13
57432;BME280;66326;40.370;-3.718;2022-12-22T16:25:35;95706.44;;;19.07;59.69
57432;BME280;66326;40.370;-3.718;2022-12-22T16:28:04;95706.06;;;19.09;59.06
57432;BME280;66326;40.370;-3.718;2022-12-22T16:30:32;95704.47;;;19.08;59.15
57432;BME280;66326;40.370;-3.718;2022-12-22T16:33:00;95717.06;;;19.12;58.69
57432;BME280;66326;40.370;-3.718;2022-12-22T16:35:28;95709.16;;;19.14;58.29
57432;BME280;66326;40.370;-3.718;2022-12-22T16:38:00;95720.94;;;19.19;60.71
57432;BME280;66326;40.370;-3.718;2022-12-22T16:40:28;95713.00;;;19.21;58.08
57432;BME280;66326;40.370;-3.718;2022-12-22T16:43:27;95721.69;;;19.23;57.33
57432;BME280;66326;40.370;-3.718;2022-12-22T16:46:16;95723.50;;;19.33;60.88
57432;BME280;66326;40.370;-3.718;2022-12-22T16:48:47;95730.16;;;19.39;60.54
57432;BME280;66326;40.370;-3.718;2022-12-22T16:51:28;95729.72;;;19.41;57.93
57432;BME280;66326;40.370;-3.718;2022-12-22T16:53:59;95730.88;;;19.43;58.16
57432;BME280;66326;40.370;-3.718;2022-12-22T16:56:28;95737.22;;;19.44;57.87
57432;BME280;66326;40.370;-3.718;2022-12-22T16:58:56;95733.69;;;19.40;58.45
57432;BME280;66326;40.370;-3.718;2022-12-22T17:04:00;95745.22;;;19.35;59.49
57432;BME280;66326;40.370;-3.718;2022-12-22T17:06:31;95741.28;;;19.32;59.95
57432;BME280;66326;40.370;-3.718;2022-12-22T17:09:01;95740.50;;;19.32;60.52
57432;BME280;66326;40.370;-3.718;2022-12-22T17:11:28;95739.38;;;19.29;60.77
57432;BME280;66326;40.370;-3.718;2022-12-22T17:14:12;95732.25;;;19.28;60.98
57432;BME280;66326;40.370;-3.718;2022-12-22T17:16:40;95733.47;;;19.27;61.11
57432;BME280;66326;40.370;-3.718;2022-12-22T17:19:12;95729.94;;;19.26;61.38
57432;BME280;66326;40.370;-3.718;2022-12-22T17:21:41;95733.47;;;19.27;61.83
57432;BME280;66326;40.370;-3.718;2022-12-22T17:24:12;95734.25;;;19.27;61.95
57432;BME280;66326;40.370;-3.718;2022-12-22T17:26:40;95727.16;;;19.26;62.06
57432;BME280;66326;40.370;-3.718;2022-12-22T17:29:14;95733.88;;;19.25;62.25
57432;BME280;66326;40.370;-3.718;2022-12-22T17:31:42;95735.06;;;19.24;62.39
57432;BME280;66326;40.370;-3.718;2022-12-22T17:34:14;95726.78;;;19.24;62.81
57432;BME280;66326;40.370;-3.718;2022-12-22T17:36:44;95731.50;;;19.24;62.82
57432;BME280;66326;40.370;-3.718;2022-12-22T17:39:18;95735.06;;;19.24;62.94
57432;BME280;66326;40.370;-3.718;2022-12-22T17:41:46;95734.28;;;19.24;63.05
57432;BME280;66326;40.370;-3.718;2022-12-22T17:44:23;95740.59;;;19.24;63.13
57432;BME280;66326;40.370;-3.718;2022-12-22T17:46:50;95738.25;;;19.23;63.18
57432;BME280;66326;40.370;-3.718;2022-12-22T17:49:17;95739.03;;;19.23;63.14
57432;BME280;66326;40.370;-3.718;2022-12-22T17:51:48;95742.56;;;19.24;63.21
57432;BME280;66326;40.370;-3.718;2022-12-22T17:54:21;95739.81;;;19.24;63.22
57432;BME280;66326;40.370;-3.718;2022-12-22T17:56:50;95741.81;;;19.23;63.27
57432;BME280;66326;40.370;-3.718;2022-12-22T17:59:23;95748.09;;;19.24;63.50
57432;BME280;66326;40.370;-3.718;2022-12-22T18:01:49;95741.03;;;19.23;63.32
57432;BME280;66326;40.370;-3.718;2022-12-22T18:04:22;95738.22;;;19.26;62.98
57432;BME280;66326;40.370;-3.718;2022-12-22T18:06:52;95737.38;;;19.29;60.52
57432;BME280;66326;40.370;-3.718;2022-12-22T18:09:22;95738.94;;;19.30;59.96
57432;BME280;66326;40.370;-3.718;2022-12-22T18:11:50;95740.50;;;19.32;60.10
57432;BME280;66326;40.370;-3.718;2022-12-22T18:14:20;95735.75;;;19.32;60.44
57432;BME280;66326;40.370;-3.718;2022-12-22T18:16:49;95745.28;;;19.31;61.00
57432;BME280;66326;40.370;-3.718;2022-12-22T18:19:16;95746.47;;;19.30;61.44
57432;BME280;66326;40.370;-3.718;2022-12-22T18:21:49;95744.09;;;19.28;61.92
57432;BME280;66326;40.370;-3.718;2022-12-22T18:24:18;95753.19;;;19.29;62.22
57432;BME280;66326;40.370;-3.718;2022-12-22T18:26:45;95752.38;;;19.28;62.40
57432;BME280;66326;40.370;-3.718;2022-12-22T18:29:16;95752.38;;;19.28;62.76
57432;BME280;66326;40.370;-3.718;2022-12-22T18:31:43;95748.84;;;19.28;62.69
57432;BME280;66326;40.370;-3.718;2022-12-22T18:34:11;95744.09;;;19.28;62.83
57432;BME280;66326;40.370;-3.718;2022-12-22T18:36:38;95742.56;;;19.27;63.11
57432;BME280;66326;40.370;-3.718;2022-12-22T18:39:13;95750.84;;;19.27;63.22
57432;BME280;66326;40.370;-3.718;2022-12-22T18:41:43;95748.09;;;19.27;63.54
57432;BME280;66326;40.370;-3.718;2022-12-22T18:44:17;95750.84;;;19.27;63.85
57432;BME280;66326;40.370;-3.718;2022-12-22T18:46:45;95746.50;;;19.26;63.87
57432;BME280;66326;40.370;-3.718;2022-12-22T18:49:12;95742.56;;;19.27;63.90
57432;BME280;66326;40.370;-3.718;2022-12-22T18:51:41;95744.53;;;19.27;64.16
57432;BME280;66326;40.370;-3.718;2022-12-22T18:54:35;95752.03;;;19.26;64.15
57432;BME280;66326;40.370;-3.718;2022-12-22T18:57:11;95748.47;;;19.26;64.35
57432;BME280;66326;40.370;-3.718;2022-12-22T18:59:38;95752.81;;;19.27;64.34
57432;BME280;66326;40.370;-3.718;2022-12-22T19:02:16;95754.00;;;19.26;64.50
57432;BME280;66326;40.370;-3.718;2022-12-22T19:04:44;95754.81;;;19.26;64.66
57432;BME280;66326;40.370;-3.718;2022-12-22T19:07:17;95754.00;;;19.26;64.61
57432;BME280;66326;40.370;-3.718;2022-12-22T19:09:45;95757.56;;;19.26;64.77
57432;BME280;66326;40.370;-3.718;2022-12-22T19:12:13;95755.56;;;19.27;64.75
57432;BME280;66326;40.370;-3.718;2022-12-22T19:14:42;95754.00;;;19.26;64.92
57432;BME280;66326;40.370;-3.718;2022-12-22T19:17:14;95757.56;;;19.26;65.07
57432;BME280;66326;40.370;-3.718;2022-12-22T19:19:42;95753.97;;;19.29;64.60
57432;BME280;66326;40.370;-3.718;2022-12-22T19:22:13;95761.44;;;19.33;63.50
57432;BME280;66326;40.370;-3.718;2022-12-22T19:24:41;95760.63;;;19.32;63.88
57432;BME280;66326;40.370;-3.718;2022-12-22T19:27:16;95763.41;;;19.32;63.74
57432;BME280;66326;40.370;-3.718;2022-12-22T19:29:45;95756.31;;;19.31;63.52
57432;BME280;66326;40.370;-3.718;2022-12-22T19:32:29;95750.00;;;19.30;63.44
57432;BME280;66326;40.370;-3.718;2022-12-22T19:34:56;95751.56;;;19.32;63.65
57432;BME280;66326;40.370;-3.718;2022-12-22T19:37:23;95749.19;;;19.34;61.16
57432;BME280;66326;40.370;-3.718;2022-12-22T19:39:50;95746.78;;;19.36;58.35
57432;BME280;66326;40.370;-3.718;2022-12-22T19:42:20;95748.22;;;19.48;59.98
57432;BME280;66326;40.370;-3.718;2022-12-22T19:44:47;95750.22;;;19.43;59.89
57432;BME280;66326;40.370;-3.718;2022-12-22T19:47:17;95752.22;;;19.43;59.86
57432;BME280;66326;40.370;-3.718;2022-12-22T19:49:45;95753.41;;;19.42;59.56
57432;BME280;66326;40.370;-3.718;2022-12-22T19:52:13;95765.69;;;19.41;59.68
57432;BME280;66326;40.370;-3.718;2022-12-22T19:54:40;95753.84;;;19.40;59.67
57432;BME280;66326;40.370;-3.718;2022-12-22T19:57:14;95758.56;;;19.40;59.39
57432;BME280;66326;40.370;-3.718;2022-12-22T19:59:45;95751.84;;;19.41;59.16
57432;BME280;66326;40.370;-3.718;2022-12-22T20:02:27;95760.47;;;19.46;58.46
57432;BME280;66326;40.370;-3.718;2022-12-22T20:04:55;95757.28;;;19.48;58.86
57432;BME280;66326;40.370;-3.718;2022-12-22T20:07:25;95752.13;;;19.50;59.09
57432;BME280;66326;40.370;-3.718;2022-12-22T20:09:52;95748.53;;;19.53;59.16
57432;BME280;66326;40.370;-3.718;2022-12-22T20:14:55;95740.53;;;19.59;59.24
57432;BME280;66326;40.370;-3.718;2022-12-22T20:17:22;95735.38;;;19.61;59.41
57432;BME280;66326;40.370;-3.718;2022-12-22T20:19:50;95734.59;;;19.60;59.43
57432;BME280;66326;40.370;-3.718;2022-12-22T20:22:19;95740.84;;;19.65;59.21
57432;BME280;66326;40.370;-3.718;2022-12-22T20:24:47;95735.31;;;19.65;59.52
57432;BME280;66326;40.370;-3.718;2022-12-22T20:27:33;95732.56;;;19.65;59.44
57432;BME280;66326;40.370;-3.718;2022-12-22T20:30:00;95725.41;;;19.67;59.44
57432;BME280;66326;40.370;-3.718;2022-12-22T20:32:27;95739.66;;;19.66;59.68
57432;BME280;66326;40.370;-3.718;2022-12-22T20:34:54;95735.75;;;19.63;59.89
57432;BME280;66326;40.370;-3.718;2022-12-22T20:37:21;95731.00;;;19.64;59.55
57432;BME280;66326;40.370;-3.718;2022-12-22T20:39:48;95732.94;;;19.67;59.73
57432;BME280;66326;40.370;-3.718;2022-12-22T20:42:22;95732.94;;;19.67;60.66
57432;BME280;66326;40.370;-3.718;2022-12-22T20:44:49;95725.84;;;19.66;60.90
57432;BME280;66326;40.370;-3.718;2022-12-22T20:47:29;95733.00;;;19.63;60.80
57432;BME280;66326;40.370;-3.718;2022-12-22T20:49:56;95730.66;;;19.61;60.72
57432;BME280;66326;40.370;-3.718;2022-12-22T20:52:22;95727.50;;;19.59;60.76
57432;BME280;66326;40.370;-3.718;2022-12-22T20:54:49;95738.56;;;19.59;60.98
57432;BME280;66326;40.370;-3.718;2022-12-22T20:57:16;95732.66;;;19.57;61.31
57432;BME280;66326;40.370;-3.718;2022-12-22T20:59:44;95737.44;;;19.57;61.56
57432;BME280;66326;40.370;-3.718;2022-12-22T21:02:23;95739.81;;;19.55;62.06
57432;BME280;66326;40.370;-3.718;2022-12-22T21:04:50;95743.00;;;19.53;62.57
57432;BME280;66326;40.370;-3.718;2022-12-22T21:07:17;95750.50;;;19.53;62.54
57432;BME280;66326;40.370;-3.718;2022-12-22T21:09:44;95746.97;;;19.52;63.14
57432;BME280;66326;40.370;-3.718;2022-12-22T21:12:11;95746.59;;;19.50;63.29
57432;BME280;66326;40.370;-3.718;2022-12-22T21:14:37;95749.34;;;19.50;63.56
57432;BME280;66326;40.370;-3.718;2022-12-22T21:17:13;95746.59;;;19.50;63.57
57432;BME280;66326;40.370;-3.718;2022-12-22T21:19:41;95752.56;;;19.49;64.02
57432;BME280;66326;40.370;-3.718;2022-12-22T21:22:08;95756.09;;;19.49;64.11
57432;BME280;66326;40.370;-3.718;2022-12-22T21:24:34;95746.59;;;19.50;64.46
57432;BME280;66326;40.370;-3.718;2022-12-22T21:27:01;95758.38;;;19.54;64.43
57432;BME280;66326;40.370;-3.718;2022-12-22T21:29:29;95756.03;;;19.53;63.78
57432;BME280;66326;40.370;-3.718;2022-12-22T21:31:56;95751.69;;;19.52;63.29
57432;BME280;66326;40.370;-3.718;2022-12-22T21:34:23;95758.44;;;19.51;62.81
57432;BME280;66326;40.370;-3.718;2022-12-22T21:36:56;95758.09;;;19.49;62.15
57432;BME280;66326;40.370;-3.718;2022-12-22T21:39:37;95758.47;;;19.47;62.03
57432;BME280;66326;40.370;-3.718;2022-12-22T21:42:17;95750.19;;;19.47;60.74
57432;BME280;66326;40.370;-3.718;2022-12-22T21:44:44;95739.13;;;19.47;59.72
57432;BME280;66326;40.370;-3.718;2022-12-22T21:47:12;95748.16;;;19.51;61.33
57432;BME280;66326;40.370;-3.718;2022-12-22T21:49:40;95746.59;;;19.50;61.89
57432;BME280;66326;40.370;-3.718;2022-12-22T21:52:07;95747.78;;;19.49;62.76
57432;BME280;66326;40.370;-3.718;2022-12-22T21:54:33;95742.25;;;19.49;62.96
57432;BME280;66326;40.370;-3.718;2022-12-22T21:57:00;95734.38;;;19.48;63.32
57432;BME280;66326;40.370;-3.718;2022-12-22T21:59:27;95732.81;;;19.46;63.53
57432;BME280;66326;40.370;-3.718;2022-12-22T22:01:54;95739.53;;;19.45;63.76
57432;BME280;66326;40.370;-3.718;2022-12-22T22:04:23;95729.25;;;19.46;64.19
57432;BME280;66326;40.370;-3.718;2022-12-22T22:06:49;95739.53;;;19.45;64.24
57432;BME280;66326;40.370;-3.718;2022-12-22T22:09:16;95736.41;;;19.43;64.40
57432;BME280;66326;40.370;-3.718;2022-12-22T22:11:43;95741.16;;;19.43;64.66
57432;BME280;66326;40.370;-3.718;2022-12-22T22:14:29;95741.16;;;19.43;64.72
57432;BME280;66326;40.370;-3.718;2022-12-22T22:16:56;95734.84;;;19.42;64.83
57432;BME280;66326;40.370;-3.718;2022-12-22T22:19:22;95739.59;;;19.42;64.99
57432;BME280;66326;40.370;-3.718;2022-12-22T22:21:49;95731.31;;;19.42;64.95
57432;BME280;66326;40.370;-3.718;2022-12-22T22:24:16;95731.31;;;19.42;65.31
57432;BME280;66326;40.370;-3.718;2022-12-22T22:26:44;95730.78;;;19.51;64.21
57432;BME280;66326;40.370;-3.718;2022-12-22T22:29:11;95731.63;;;19.48;63.70
57432;BME280;66326;40.370;-3.718;2022-12-22T22:31:39;95733.59;;;19.47;63.33
57432;BME280;66326;40.370;-3.718;2022-12-22T22:34:06;95734.78;;;19.46;63.48
57432;BME280;66326;40.370;-3.718;2022-12-22T22:36:33;95737.97;;;19.44;63.03
57432;BME280;66326;40.370;-3.718;2022-12-22T22:39:00;95731.31;;;19.42;62.62
57432;BME280;66326;40.370;-3.718;2022-12-22T22:41:26;95725.78;;;19.42;62.50
57432;BME280;66326;40.370;-3.718;2022-12-22T22:43:59;95724.56;;;19.43;62.30
57432;BME280;66326;40.370;-3.718;2022-12-22T22:46:26;95727.69;;;19.45;62.34
57432;BME280;66326;40.370;-3.718;2022-12-22T22:48:53;95720.19;;;19.45;62.12
57432;BME280;66326;40.370;-3.718;2022-12-22T22:51:21;95713.84;;;19.45;61.77
57432;BME280;66326;40.370;-3.718;2022-12-22T22:53:48;95719.03;;;19.43;61.80
57432;BME280;66326;40.370;-3.718;2022-12-22T22:56:15;95711.94;;;19.42;61.66
57432;BME280;66326;40.370;-3.718;2022-12-22T22:58:42;95708.75;;;19.43;61.43
57432;BME280;66326;40.370;-3.718;2022-12-22T23:01:10;95707.94;;;19.46;61.39
57432;BME280;66326;40.370;-3.718;2022-12-22T23:03:37;95704.38;;;19.46;61.16
57432;BME280;66326;40.370;-3.718;2022-12-22T23:06:07;95703.59;;;19.45;60.79
57432;BME280;66326;40.370;-3.718;2022-12-22T23:08:35;95698.06;;;19.45;60.95
57432;BME280;66326;40.370;-3.718;2022-12-22T23:11:03;95699.25;;;19.44;60.68
57432;BME280;66326;40.370;-3.718;2022-12-22T23:13:30;95696.50;;;19.44;60.86
57432;BME280;66326;40.370;-3.718;2022-12-22T23:16:01;95697.69;;;19.43;60.79
57432;BME280;66326;40.370;-3.718;2022-12-22T23:18:29;95694.16;;;19.43;60.63
57432;BME280;66326;40.370;-3.718;2022-12-22T23:20:56;95698.72;;;19.57;60.45
57432;BME280;66326;40.370;-3.718;2022-12-22T23:23:23;95702.28;;;19.54;61.34
57432;BME280;66326;40.370;-3.718;2022-12-22T23:25:50;95707.06;;;19.53;61.48
57432;BME280;66326;40.370;-3.718;2022-12-22T23:28:18;95708.25;;;19.52;61.42
57432;BME280;66326;40.370;-3.718;2022-12-22T23:30:49;95723.28;;;19.51;61.16
57432;BME280;66326;40.370;-3.718;2022-12-22T23:33:17;95718.94;;;19.50;61.27
57432;BME280;66326;40.370;-3.718;2022-12-22T23:35:45;95720.13;;;19.49;61.29
57432;BME280;66326;40.370;-3.718;2022-12-22T23:38:13;95711.47;;;19.47;61.54
57432;BME280;66326;40.370;-3.718;2022-12-22T23:40:41;95718.56;;;19.48;61.82
57432;BME280;66326;40.370;-3.718;2022-12-22T23:43:19;95719.00;;;19.46;61.16
57432;BME280;66326;40.370;-3.718;2022-12-22T23:45:46;95715.09;;;19.44;61.29
57432;BME280;66326;40.370;-3.718;2022-12-22T23:48:12;95707.97;;;19.43;61.07
57432;BME280;66326;40.370;-3.718;2022-12-22T23:50:40;95710.75;;;19.43;61.22
57432;BME280;66326;40.370;-3.718;2022-12-22T23:53:07;95703.66;;;19.42;60.92
57432;BME280;66326;40.370;-3.718;2022-12-22T23:55:34;95700.88;;;19.42;60.79
57432;BME280;66326;40.370;-3.718;2022-12-22T23:58:01;95702.84;;;19.41;60.85
